createdAt,value
2022-12-20T00:00:54.084Z,99837.53
2022-12-20T00:03:21.843Z,99853.34
2022-12-20T00:05:49.491Z,99848.03
2022-12-20T00:08:17.191Z,99854.03
2022-12-20T00:10:45.893Z,99857.63
2022-12-20T00:13:13.935Z,99841.09
2022-12-20T00:15:41.638Z,99834.75
2022-12-20T00:18:10.766Z,99838.28
2022-12-20T00:20:38.713Z,99827.66
2022-12-20T00:23:06.302Z,99820.59
2022-12-20T00:25:33.904Z,99819.78
2022-12-20T00:28:03.097Z,99804.00
2022-12-20T00:30:30.739Z,99797.84
2022-12-20T00:32:58.475Z,99803.88
2022-12-20T00:35:27.394Z,99794.38
2022-12-20T00:37:55.249Z,99790.78
2022-12-20T00:40:22.907Z,99804.75
2022-12-20T00:42:50.766Z,99782.09
2022-12-20T00:45:18.411Z,99780.22
2022-12-20T00:47:46.143Z,99779.25
2022-12-20T00:50:13.758Z,99789.88
2022-12-20T00:52:42.913Z,99777.59
2022-12-20T00:55:10.625Z,99826.66
2022-12-20T00:57:38.406Z,99777.75
2022-12-20T01:00:07.034Z,99803.94
2022-12-20T01:02:35.721Z,99761.59
2022-12-20T01:05:03.597Z,99812.63
2022-12-20T01:07:31.364Z,99818.72
2022-12-20T01:10:00.349Z,99824.81
2022-12-20T01:12:28.179Z,99830.88
2022-12-20T01:14:56.088Z,99832.56
2022-12-20T01:17:25.594Z,99842.19
2022-12-20T01:19:53.158Z,99837.75
2022-12-20T01:22:21.035Z,99823.72
2022-12-20T01:24:48.740Z,99824.59
2022-12-20T01:27:17.880Z,99813.22
2022-12-20T01:29:45.504Z,99758.53
2022-12-20T01:32:13.312Z,99806.16
2022-12-20T01:34:40.962Z,99807.06
2022-12-20T01:37:08.834Z,99805.28
2022-12-20T01:39:36.465Z,99813.19
2022-12-20T01:42:04.387Z,99782.59
2022-12-20T01:45:00.465Z,99788.78
2022-12-20T01:47:28.407Z,99790.94
2022-12-20T01:49:56.180Z,99784.81
2022-12-20T01:52:27.478Z,99785.84
2022-12-20T01:54:56.223Z,99809.59
2022-12-20T01:57:25.456Z,99789.41
2022-12-20T01:59:54.054Z,99774.66
2022-12-20T02:02:23.657Z,99786.81
2022-12-20T02:04:51.778Z,99782.47
2022-12-20T02:07:20.718Z,99779.84
2022-12-20T02:09:48.391Z,99772.06
2022-12-20T02:12:16.570Z,99793.91
2022-12-20T02:14:51.352Z,99785.16
2022-12-20T02:17:22.371Z,99763.53
2022-12-20T02:20:12.847Z,99707.97
2022-12-20T02:22:47.572Z,99770.38
2022-12-20T02:25:29.195Z,99732.41
2022-12-20T02:28:01.072Z,99726.28
2022-12-20T02:30:32.624Z,99744.34
2022-12-20T02:33:01.396Z,99691.66
2022-12-20T02:35:31.932Z,99760.25
2022-12-20T02:38:00.418Z,99710.03
2022-12-20T02:40:29.144Z,99761.22
2022-12-20T02:42:58.453Z,99744.84
2022-12-20T02:45:26.985Z,99737.69
2022-12-20T02:47:56.815Z,99728.91
2022-12-20T02:50:26.342Z,99723.66
2022-12-20T02:52:53.989Z,99731.59
2022-12-20T02:55:22.057Z,99732.41
2022-12-20T02:57:57.868Z,99733.44
2022-12-20T03:00:27.890Z,99685.66
2022-12-20T03:03:14.425Z,99728.03
2022-12-20T03:05:45.032Z,99735.22
2022-12-20T03:08:12.663Z,99712.75
2022-12-20T03:10:40.517Z,99759.50
2022-12-20T03:13:08.334Z,99752.50
2022-12-20T03:15:37.133Z,99748.94
2022-12-20T03:18:06.145Z,99752.56
2022-12-20T03:20:33.806Z,99752.50
2022-12-20T03:25:36.039Z,99783.03
2022-12-20T03:28:04.561Z,99782.19
2022-12-20T03:30:32.331Z,99760.25
2022-12-20T03:32:59.998Z,99769.94
2022-12-20T03:35:29.002Z,99748.91
2022-12-20T03:37:56.661Z,99741.13
2022-12-20T03:40:25.423Z,99774.25
2022-12-20T03:42:53.044Z,99771.56
2022-12-20T03:45:20.883Z,99797.81
2022-12-20T03:47:48.517Z,99740.28
2022-12-20T03:50:16.905Z,99750.06
2022-12-20T03:52:45.829Z,99749.88
2022-12-20T03:55:13.568Z,99760.50
2022-12-20T03:57:42.097Z,99736.28
2022-12-20T04:00:12.440Z,99758.81
2022-12-20T04:02:40.354Z,99753.59
2022-12-20T04:05:08.957Z,99718.91
2022-12-20T04:07:36.538Z,99748.44
2022-12-20T04:10:07.031Z,99745.06
2022-12-20T04:12:34.626Z,99769.44
2022-12-20T04:15:02.386Z,99758.09
2022-12-20T04:17:29.972Z,99758.06
2022-12-20T04:19:57.632Z,99767.69
2022-12-20T04:22:25.767Z,99772.06
2022-12-20T04:24:53.394Z,99754.69
2022-12-20T04:27:22.338Z,99772.16
2022-12-20T04:29:49.943Z,99756.38
2022-12-20T04:32:18.540Z,99752.09
2022-12-20T04:34:46.105Z,99753.03
2022-12-20T04:37:14.742Z,99744.34
2022-12-20T04:39:44.672Z,99756.59
2022-12-20T04:42:12.309Z,99749.69
2022-12-20T04:44:41.243Z,99733.19
2022-12-20T04:47:10.065Z,99727.88
2022-12-20T04:49:37.628Z,99747.94
2022-12-20T04:52:19.652Z,99754.97
2022-12-20T04:54:47.742Z,99762.88
2022-12-20T04:57:18.322Z,99749.78
2022-12-20T04:59:47.365Z,99757.66
2022-12-20T05:02:15.003Z,99740.19
2022-12-20T05:04:43.224Z,99732.28
2022-12-20T05:07:10.836Z,99735.78
2022-12-20T05:09:38.828Z,99734.84
2022-12-20T05:12:06.765Z,99732.28
2022-12-20T05:14:34.568Z,99715.78
2022-12-20T05:17:03.499Z,99727.16
2022-12-20T05:19:31.369Z,99712.22
2022-12-20T05:22:16.594Z,99690.44
2022-12-20T05:25:01.495Z,99700.91
2022-12-20T05:27:29.103Z,99686.97
2022-12-20T05:29:56.932Z,99692.19
2022-12-20T05:32:25.837Z,99687.81
2022-12-20T05:34:53.533Z,99692.13
2022-12-20T05:37:21.106Z,99685.22
2022-12-20T05:39:48.841Z,99685.16
2022-12-20T05:42:16.404Z,99674.66
2022-12-20T05:44:44.137Z,99658.94
2022-12-20T05:47:11.820Z,99675.53
2022-12-20T05:49:40.884Z,99669.47
2022-12-20T05:52:08.633Z,99687.78
2022-12-20T05:54:36.562Z,99677.25
2022-12-20T05:57:04.295Z,99719.19
2022-12-20T05:59:32.099Z,99668.50
2022-12-20T06:02:00.115Z,99675.50
2022-12-20T06:04:28.009Z,99668.44
2022-12-20T06:06:57.093Z,99658.03
2022-12-20T06:09:24.855Z,99664.84
2022-12-20T06:11:52.432Z,99667.38
2022-12-20T06:14:20.346Z,99650.81
2022-12-20T06:16:48.011Z,99663.94
2022-12-20T06:19:21.142Z,99652.50
2022-12-20T06:21:49.313Z,99656.84
2022-12-20T06:24:18.579Z,99642.06
2022-12-20T06:26:48.259Z,99660.34
2022-12-20T06:29:17.492Z,99658.53
2022-12-20T06:31:45.376Z,99669.03
2022-12-20T06:34:12.991Z,99669.84
2022-12-20T06:36:40.679Z,99642.97
2022-12-20T06:39:09.905Z,99650.66
2022-12-20T06:41:41.795Z,99599.84
2022-12-20T06:44:09.410Z,99656.63
2022-12-20T06:46:37.198Z,99628.03
2022-12-20T06:49:04.790Z,99648.75
2022-12-20T06:51:32.503Z,99629.44
2022-12-20T06:54:00.102Z,99656.50
2022-12-20T06:56:27.700Z,99632.97
2022-12-20T06:58:56.828Z,99646.00
2022-12-20T07:01:24.552Z,99637.25
2022-12-20T07:03:52.414Z,99631.06
2022-12-20T07:06:20.046Z,99645.16
2022-12-20T07:08:48.031Z,99636.47
2022-12-20T07:11:15.604Z,99639.94
2022-12-20T07:13:43.305Z,99625.09
2022-12-20T07:16:12.508Z,99617.31
2022-12-20T07:18:40.274Z,99618.13
2022-12-20T07:21:07.845Z,99621.59
2022-12-20T07:23:35.418Z,99606.81
2022-12-20T07:26:04.485Z,99619.78
2022-12-20T07:28:32.395Z,99623.38
2022-12-20T07:31:01.882Z,99612.31
2022-12-20T07:33:30.885Z,99624.25
2022-12-20T07:36:02.200Z,99640.00
2022-12-20T07:38:30.278Z,99635.56
2022-12-20T07:40:58.090Z,99625.91
2022-12-20T07:43:25.733Z,99625.03
2022-12-20T07:45:56.306Z,99611.84
2022-12-20T07:48:24.365Z,99604.06
2022-12-20T07:51:02.689Z,99599.59
2022-12-20T07:53:30.434Z,99635.44
2022-12-20T07:55:58.712Z,99605.84
2022-12-20T07:58:27.189Z,99611.69
2022-12-20T08:00:55.129Z,99614.25
2022-12-20T08:03:24.123Z,99590.13
2022-12-20T08:05:54.311Z,99614.31
2022-12-20T08:08:22.133Z,99608.03
2022-12-20T08:10:49.957Z,99602.94
2022-12-20T08:13:17.575Z,99635.16
2022-12-20T08:15:45.509Z,99631.56
2022-12-20T08:18:13.056Z,99609.63
2022-12-20T08:20:40.790Z,99613.94
2022-12-20T08:23:09.809Z,99612.16
2022-12-20T08:25:41.728Z,99608.47
2022-12-20T08:28:09.888Z,99608.47
2022-12-20T08:30:37.818Z,99610.94
2022-12-20T08:33:05.520Z,99601.41
2022-12-20T08:35:33.278Z,99594.28
2022-12-20T08:38:00.938Z,99607.50
2022-12-20T08:40:30.053Z,99599.59
2022-12-20T08:42:57.931Z,99612.63
2022-12-20T08:45:26.608Z,99592.41
2022-12-20T08:47:54.835Z,99585.34
2022-12-20T08:50:22.402Z,99576.50
2022-12-20T08:52:49.964Z,99589.66
2022-12-20T08:55:20.909Z,99593.94
2022-12-20T08:57:52.467Z,99597.31
2022-12-20T09:00:20.822Z,99586.06
2022-12-20T09:02:51.859Z,99587.81
2022-12-20T09:05:19.829Z,99597.50
2022-12-20T09:07:47.413Z,99603.53
2022-12-20T09:10:14.991Z,99606.28
2022-12-20T09:12:45.521Z,99587.81
2022-12-20T09:15:15.836Z,99592.94
2022-12-20T09:17:43.391Z,99672.66
2022-12-20T09:20:11.427Z,99600.03
2022-12-20T09:25:14.078Z,99600.84
2022-12-20T09:27:41.781Z,99568.69
2022-12-20T09:30:10.465Z,99601.75
2022-12-20T09:32:39.570Z,99600.91
2022-12-20T09:35:07.888Z,99597.47
2022-12-20T09:37:35.756Z,99613.09
2022-12-20T09:40:04.358Z,99613.13
2022-12-20T09:42:32.021Z,99598.13
2022-12-20T09:45:03.346Z,99623.59
2022-12-20T09:47:30.946Z,99600.72
2022-12-20T09:49:59.931Z,99599.84
2022-12-20T09:52:35.722Z,99583.59
2022-12-20T09:55:10.899Z,99572.28
2022-12-20T09:57:46.106Z,99591.72
2022-12-20T10:00:16.073Z,99599.25
2022-12-20T10:02:58.918Z,99590.34
2022-12-20T10:05:40.798Z,99581.38
2022-12-20T10:08:12.996Z,99540.03
2022-12-20T10:10:50.773Z,99596.97
2022-12-20T10:13:27.268Z,99551.69
2022-12-20T10:15:56.759Z,99578.31
2022-12-20T10:18:35.816Z,99580.84
2022-12-20T10:21:07.766Z,99581.72
2022-12-20T10:23:38.449Z,99574.72
2022-12-20T10:26:09.469Z,99557.06
2022-12-20T10:28:37.527Z,99543.19
2022-12-20T10:31:07.937Z,99544.38
2022-12-20T10:33:35.792Z,99545.16
2022-12-20T10:36:21.802Z,99514.69
2022-12-20T10:38:50.110Z,99521.66
2022-12-20T10:41:21.805Z,99551.81
2022-12-20T10:43:52.058Z,99545.56
2022-12-20T10:46:19.826Z,99534.81
2022-12-20T10:48:47.888Z,99535.53
2022-12-20T10:51:17.378Z,99528.63
2022-12-20T10:53:54.268Z,99491.88
2022-12-20T10:56:22.752Z,99487.06
2022-12-20T10:58:57.855Z,99459.25
2022-12-20T11:01:28.234Z,99507.50
2022-12-20T11:03:58.252Z,99518.81
2022-12-20T11:06:28.720Z,99470.94
2022-12-20T11:09:22.326Z,99463.81
2022-12-20T11:11:59.215Z,99481.56
2022-12-20T11:14:27.844Z,99482.84
2022-12-20T11:17:00.311Z,99511.16
2022-12-20T11:19:34.893Z,99498.66
2022-12-20T11:22:05.139Z,99476.66
2022-12-20T11:24:35.378Z,99458.06
2022-12-20T11:27:15.659Z,99488.34
2022-12-20T11:30:05.060Z,99484.88
2022-12-20T11:32:48.444Z,99457.13
2022-12-20T11:35:19.532Z,99461.94
2022-12-20T11:37:50.981Z,99472.44
2022-12-20T11:40:28.408Z,99475.16
2022-12-20T11:43:05.695Z,99458.56
2022-12-20T11:45:41.534Z,99438.00
2022-12-20T11:48:23.350Z,99432.69
2022-12-20T11:50:57.600Z,99456.13
2022-12-20T11:53:27.845Z,99427.84
2022-12-20T11:55:59.225Z,99443.28
2022-12-20T11:58:27.872Z,99445.91
2022-12-20T12:00:58.185Z,99413.75
2022-12-20T12:03:29.788Z,99428.28
2022-12-20T12:05:58.732Z,99416.31
2022-12-20T12:08:29.151Z,99442.16
2022-12-20T12:11:00.384Z,99438.72
2022-12-20T12:13:29.013Z,99431.09
2022-12-20T12:16:00.221Z,99439.75
2022-12-20T12:18:29.695Z,99403.69
2022-12-20T12:21:06.614Z,99449.38
2022-12-20T12:23:40.259Z,99453.88
2022-12-20T12:26:13.319Z,99425.31
2022-12-20T12:28:41.047Z,99445.16
2022-12-20T12:31:11.715Z,99445.00
2022-12-20T12:33:42.683Z,99462.66
2022-12-20T12:36:17.861Z,99447.75
2022-12-20T12:39:18.856Z,99436.25
2022-12-20T12:42:28.018Z,99451.88
2022-12-20T12:44:57.556Z,99414.75
2022-12-20T12:47:29.135Z,99394.78
2022-12-20T12:49:56.730Z,99430.88
2022-12-20T12:52:43.658Z,99415.28
2022-12-20T12:55:36.893Z,99433.34
2022-12-20T12:58:31.010Z,99451.19
2022-12-20T13:01:00.418Z,99356.34
2022-12-20T13:03:45.987Z,99408.31
2022-12-20T13:06:49.868Z,99454.13
2022-12-20T13:09:22.280Z,99457.06
2022-12-20T13:11:57.424Z,99448.50
2022-12-20T13:14:50.860Z,99447.59
2022-12-20T13:17:54.060Z,99446.00
2022-12-20T13:20:23.336Z,99438.31
2022-12-20T13:23:07.886Z,99431.50
2022-12-20T13:25:36.579Z,99422.00
2022-12-20T13:28:42.210Z,99429.28
2022-12-20T13:31:32.584Z,99439.00
2022-12-20T13:34:03.985Z,99430.41
2022-12-20T13:36:36.155Z,99420.00
2022-12-20T13:39:31.459Z,99415.44
2022-12-20T13:42:14.126Z,99427.75
2022-12-20T13:44:42.937Z,99392.41
2022-12-20T13:47:28.324Z,99418.09
2022-12-20T13:50:00.400Z,99413.75
2022-12-20T13:52:30.062Z,99407.72
2022-12-20T13:55:00.563Z,99420.91
2022-12-20T13:57:32.942Z,99413.03
2022-12-20T14:00:07.028Z,99388.97
2022-12-20T14:02:37.295Z,99425.25
2022-12-20T14:05:10.272Z,99423.59
2022-12-20T14:07:38.855Z,99424.38
2022-12-20T14:10:18.216Z,99427.13
2022-12-20T14:12:46.137Z,99432.22
2022-12-20T14:15:23.247Z,99426.13
2022-12-20T14:17:50.861Z,99429.59
2022-12-20T14:20:22.805Z,99443.59
2022-12-20T14:23:00.756Z,99418.16
2022-12-20T14:25:36.420Z,99419.22
2022-12-20T14:28:04.060Z,99411.25
2022-12-20T14:30:49.806Z,99390.63
2022-12-20T14:33:20.922Z,99413.59
2022-12-20T14:35:50.998Z,99420.84
2022-12-20T14:38:23.297Z,99430.53
2022-12-20T14:40:54.173Z,99405.44
2022-12-20T14:43:27.306Z,99427.31
2022-12-20T14:46:18.104Z,99421.31
2022-12-20T14:48:47.080Z,99417.06
2022-12-20T14:51:20.263Z,99418.84
2022-12-20T14:53:50.984Z,99420.63
2022-12-20T14:56:21.733Z,99413.59
2022-12-20T14:59:13.678Z,99402.28
2022-12-20T15:01:44.250Z,99397.94
2022-12-20T15:04:23.015Z,99412.25
2022-12-20T15:06:52.705Z,99401.50
2022-12-20T15:09:20.650Z,99391.09
2022-12-20T15:11:48.468Z,99374.63
2022-12-20T15:14:35.086Z,99388.28
2022-12-20T15:17:02.991Z,99390.97
2022-12-20T15:19:31.343Z,99364.28
2022-12-20T15:22:00.365Z,99393.63
2022-12-20T15:24:29.426Z,99396.28
2022-12-20T15:26:57.268Z,99382.44
2022-12-20T15:29:25.489Z,99387.53
2022-12-20T15:31:53.591Z,99390.16
2022-12-20T15:34:28.381Z,99379.59
2022-12-20T15:36:56.745Z,99389.09
2022-12-20T15:39:25.891Z,99392.63
2022-12-20T15:41:53.653Z,99360.81
2022-12-20T15:44:23.462Z,99424.97
2022-12-20T15:46:52.514Z,99388.19
2022-12-20T15:49:22.001Z,99392.59
2022-12-20T15:51:50.111Z,99378.84
2022-12-20T15:54:24.084Z,99352.88
2022-12-20T15:56:53.154Z,99362.41
2022-12-20T15:59:57.558Z,99349.41
2022-12-20T16:02:13.249Z,99383.00
2022-12-20T16:04:41.091Z,99348.53
2022-12-20T16:07:12.436Z,99378.75
2022-12-20T16:09:40.271Z,99356.16
2022-12-20T16:12:14.613Z,99303.97
2022-12-20T16:14:42.189Z,99355.25
2022-12-20T16:17:15.137Z,99371.78
2022-12-20T16:19:44.627Z,99369.03
2022-12-20T16:22:15.460Z,99371.66
2022-12-20T16:24:43.413Z,99335.22
2022-12-20T16:27:12.808Z,99369.03
2022-12-20T16:29:41.307Z,99367.25
2022-12-20T16:32:13.864Z,99354.34
2022-12-20T16:34:41.642Z,99365.47
2022-12-20T16:37:09.234Z,99361.28
2022-12-20T16:39:36.865Z,99371.81
2022-12-20T16:42:04.798Z,99375.34
2022-12-20T16:44:33.984Z,99361.44
2022-12-20T16:47:02.134Z,99361.38
2022-12-20T16:49:29.935Z,99361.38
2022-12-20T16:51:57.659Z,99372.75
2022-12-20T16:54:25.498Z,99317.53
2022-12-20T16:56:55.506Z,99366.69
2022-12-20T16:59:23.632Z,99369.13
2022-12-20T17:01:53.866Z,99320.88
2022-12-20T17:04:22.181Z,99342.88
2022-12-20T17:06:50.063Z,99337.78
2022-12-20T17:12:04.235Z,99345.66
2022-12-20T17:14:33.061Z,99318.88
2022-12-20T17:17:02.221Z,99350.13
2022-12-20T17:19:29.902Z,99344.88
2022-12-20T17:24:42.602Z,99331.25
2022-12-20T17:32:27.643Z,99350.56
2022-12-20T17:34:55.508Z,99287.53
2022-12-20T17:37:24.647Z,99360.34
2022-12-20T17:39:52.506Z,99338.47
2022-12-20T17:42:23.162Z,99340.25
2022-12-20T17:44:53.647Z,99339.31
2022-12-20T17:47:21.542Z,99339.22
2022-12-20T17:49:50.881Z,99334.09
2022-12-20T17:52:20.559Z,99347.78
2022-12-20T17:54:48.277Z,99344.28
2022-12-20T17:57:16.332Z,99329.50
2022-12-20T17:59:43.993Z,99319.03
2022-12-20T18:02:20.122Z,99322.41
2022-12-20T18:04:48.176Z,99325.09
2022-12-20T18:07:17.258Z,99329.41
2022-12-20T18:09:47.571Z,99327.59
2022-12-20T18:12:15.211Z,99323.13
2022-12-20T18:14:42.799Z,99337.16
2022-12-20T18:17:10.918Z,99328.38
2022-12-20T18:19:39.467Z,99328.31
2022-12-20T18:22:08.244Z,99323.13
2022-12-20T18:24:37.490Z,99326.69
2022-12-20T18:27:05.154Z,99326.69
2022-12-20T18:29:32.994Z,99322.25
2022-12-20T18:32:00.783Z,99312.63
2022-12-20T18:34:28.612Z,99320.50
2022-12-20T18:36:56.210Z,99332.69
2022-12-20T18:39:24.939Z,99316.94
2022-12-20T18:41:53.886Z,99296.31
2022-12-20T18:44:21.510Z,99320.59
2022-12-20T18:46:49.245Z,99317.09
2022-12-20T18:49:16.968Z,99327.56
2022-12-20T18:51:44.881Z,99312.81
2022-12-20T18:54:13.518Z,99323.22
2022-12-20T18:56:41.656Z,99321.50
2022-12-20T18:59:12.686Z,99280.28
2022-12-20T19:01:41.445Z,99324.13
2022-12-20T19:04:09.685Z,99323.34
2022-12-20T19:06:38.084Z,99298.28
2022-12-20T19:09:07.084Z,99327.00
2022-12-20T19:11:34.903Z,99324.06
2022-12-20T19:14:03.600Z,99320.69
2022-12-20T19:16:33.385Z,99276.53
2022-12-20T19:19:01.638Z,99297.41
2022-12-20T19:21:29.916Z,99322.41
2022-12-20T19:23:58.754Z,99324.13
2022-12-20T19:26:27.686Z,99320.63
2022-12-20T19:28:55.799Z,99315.50
2022-12-20T19:31:24.638Z,99317.91
2022-12-20T19:33:55.070Z,99327.59
2022-12-20T19:36:25.196Z,99320.63
2022-12-20T19:38:55.328Z,99328.63
2022-12-20T19:41:23.668Z,99330.41
2022-12-20T19:43:52.138Z,99334.78
2022-12-20T19:46:25.098Z,99331.25
2022-12-20T19:48:57.330Z,99297.63
2022-12-20T19:51:25.733Z,99339.13
2022-12-20T19:53:54.232Z,99317.44
2022-12-20T19:56:23.685Z,99323.47
2022-12-20T19:58:51.381Z,99327.84
2022-12-20T20:01:19.538Z,99315.63
2022-12-20T20:03:50.321Z,99317.41
2022-12-20T20:06:21.331Z,99292.31
2022-12-20T20:08:51.454Z,99308.59
2022-12-20T20:11:20.879Z,99306.78
2022-12-20T20:13:48.912Z,99314.75
2022-12-20T20:16:22.270Z,99320.94
2022-12-20T20:18:50.887Z,99313.88
2022-12-20T20:21:22.617Z,99312.13
2022-12-20T20:23:50.588Z,99326.94
2022-12-20T20:26:19.525Z,99285.63
2022-12-20T20:28:47.131Z,99328.81
2022-12-20T20:31:15.845Z,99328.63
2022-12-20T20:33:44.066Z,99325.16
2022-12-20T20:36:13.987Z,99318.94
2022-12-20T20:38:44.510Z,99311.91
2022-12-20T20:41:12.539Z,99294.69
2022-12-20T20:43:40.742Z,99316.25
2022-12-20T20:46:09.737Z,99317.09
2022-12-20T20:48:37.545Z,99313.78
2022-12-20T20:51:06.573Z,99314.59
2022-12-20T20:53:34.967Z,99311.06
2022-12-20T20:56:05.732Z,99305.75
2022-12-20T20:58:33.669Z,99303.91
2022-12-20T21:01:02.818Z,99277.03
2022-12-20T21:03:30.973Z,99309.84
2022-12-20T21:08:47.647Z,99299.16
2022-12-20T21:11:17.075Z,99287.72
2022-12-20T21:13:44.925Z,99298.28
2022-12-20T21:16:14.059Z,99298.19
2022-12-20T21:18:41.893Z,99292.19
2022-12-20T21:21:10.428Z,99302.53
2022-12-20T21:23:38.411Z,99292.81
2022-12-20T21:26:07.510Z,99291.91
2022-12-20T21:28:36.554Z,99273.00
2022-12-20T21:31:05.596Z,99287.56
2022-12-20T21:33:33.434Z,99294.56
2022-12-20T21:36:01.909Z,99287.59
2022-12-20T21:38:29.565Z,99292.91
2022-12-20T21:41:01.262Z,99284.06
2022-12-20T21:43:29.029Z,99294.41
2022-12-20T21:45:58.049Z,99288.22
2022-12-20T21:48:25.985Z,99292.50
2022-12-20T21:51:00.606Z,99290.97
2022-12-20T21:53:28.308Z,99286.50
2022-12-20T21:55:56.496Z,99294.28
2022-12-20T21:58:24.142Z,99289.84
2022-12-20T22:00:55.082Z,99287.19
2022-12-20T22:03:24.768Z,99291.50
2022-12-20T22:05:53.317Z,99286.25
2022-12-20T22:08:21.277Z,99261.16
2022-12-20T22:10:49.816Z,99287.84
2022-12-20T22:13:17.544Z,99286.03
2022-12-20T22:15:45.129Z,99288.66
2022-12-20T22:18:12.791Z,99294.69
2022-12-20T22:20:44.826Z,99294.69
2022-12-20T22:23:12.463Z,99292.91
2022-12-20T22:25:40.263Z,99292.06
2022-12-20T22:28:07.957Z,99291.25
2022-12-20T22:30:35.678Z,99290.28
2022-12-20T22:33:03.312Z,99287.63
2022-12-20T22:35:30.876Z,99293.75
2022-12-20T22:37:59.864Z,99290.28
2022-12-20T22:40:27.469Z,99292.00
2022-12-20T22:42:55.031Z,99299.00
2022-12-20T22:45:22.826Z,99299.84
2022-12-20T22:47:50.901Z,99298.09
2022-12-20T22:50:18.855Z,99294.56
2022-12-20T22:52:47.429Z,99278.91
2022-12-20T22:55:16.774Z,99289.38
2022-12-20T22:57:44.546Z,99284.22
2022-12-20T23:00:13.989Z,99285.94
2022-12-20T23:02:41.958Z,99280.75
2022-12-20T23:05:10.429Z,99286.75
2022-12-20T23:07:38.124Z,99287.66
2022-12-20T23:10:26.565Z,99299.84
2022-12-20T23:13:13.474Z,99310.38
2022-12-20T23:15:41.288Z,99310.41
2022-12-20T23:18:08.830Z,99294.72
2022-12-20T23:20:54.373Z,99280.78
2022-12-20T23:23:21.931Z,99297.34
2022-12-20T23:25:49.718Z,99310.53
2022-12-20T23:30:48.552Z,99308.94
2022-12-20T23:33:16.095Z,99308.03
2022-12-20T23:35:43.966Z,99315.03
2022-12-20T23:38:11.596Z,99301.19
2022-12-20T23:40:41.201Z,99296.63
2022-12-20T23:43:08.798Z,99299.25
2022-12-20T23:45:36.613Z,99299.25
2022-12-20T23:48:06.357Z,99301.91
2022-12-20T23:50:34.127Z,99300.13
2022-12-20T23:53:01.793Z,99281.31
2022-12-20T23:55:29.588Z,99309.81
2022-12-20T23:57:57.175Z,99312.53
